sensor_id;sensor_type;location;lat;lon;timestamp;P1;durP1;ratioP1;P2;durP2;ratioP2
8113;SDS011;4099;52.684;9.918;2022-10-31T00:02:34;20.57;;;15.90;;
8113;SDS011;4099;52.684;9.918;2022-10-31T00:07:38;18.97;;;14.77;;
8113;SDS011;4099;52.684;9.918;2022-10-31T00:12:40;18.77;;;14.77;;
8113;SDS011;4099;52.684;9.918;2022-10-31T00:17:42;21.40;;;14.30;;
8113;SDS011;4099;52.684;9.918;2022-10-31T00:22:46;18.73;;;14.90;;
8113;SDS011;4099;52.684;9.918;2022-10-31T00:27:49;19.00;;;14.47;;
8113;SDS011;4099;52.684;9.918;2022-10-31T00:32:51;17.57;;;13.97;;
8113;SDS011;4099;52.684;9.918;2022-10-31T00:37:54;19.23;;;15.30;;
8113;SDS011;4099;52.684;9.918;2022-10-31T00:42:56;21.33;;;17.60;;
8113;SDS011;4099;52.684;9.918;2022-10-31T00:47:58;23.33;;;17.33;;
8113;SDS011;4099;52.684;9.918;2022-10-31T00:53:02;20.60;;;15.27;;
8113;SDS011;4099;52.684;9.918;2022-10-31T00:58:04;20.10;;;16.47;;
8113;SDS011;4099;52.684;9.918;2022-10-31T01:03:06;18.97;;;15.60;;
8113;SDS011;4099;52.684;9.918;2022-10-31T01:08:13;18.47;;;15.03;;
8113;SDS011;4099;52.684;9.918;2022-10-31T01:13:17;21.03;;;15.77;;
8113;SDS011;4099;52.684;9.918;2022-10-31T01:18:19;20.23;;;15.67;;
8113;SDS011;4099;52.684;9.918;2022-10-31T01:23:22;18.50;;;14.83;;
8113;SDS011;4099;52.684;9.918;2022-10-31T01:28:24;23.50;;;17.70;;
8113;SDS011;4099;52.684;9.918;2022-10-31T01:33:26;26.87;;;17.67;;
8113;SDS011;4099;52.684;9.918;2022-10-31T01:38:29;31.47;;;18.20;;
8113;SDS011;4099;52.684;9.918;2022-10-31T01:43:41;24.17;;;18.03;;
8113;SDS011;4099;52.684;9.918;2022-10-31T01:48:44;26.83;;;18.07;;
8113;SDS011;4099;52.684;9.918;2022-10-31T01:53:49;31.53;;;20.20;;
8113;SDS011;4099;52.684;9.918;2022-10-31T01:58:53;33.37;;;21.47;;
8113;SDS011;4099;52.684;9.918;2022-10-31T02:03:57;38.80;;;23.63;;
8113;SDS011;4099;52.684;9.918;2022-10-31T02:09:00;35.97;;;22.43;;
8113;SDS011;4099;52.684;9.918;2022-10-31T02:14:05;39.63;;;24.53;;
8113;SDS011;4099;52.684;9.918;2022-10-31T02:19:07;39.70;;;25.30;;
8113;SDS011;4099;52.684;9.918;2022-10-31T02:24:21;40.87;;;26.20;;
8113;SDS011;4099;52.684;9.918;2022-10-31T02:29:54;38.20;;;25.53;;
8113;SDS011;4099;52.684;9.918;2022-10-31T02:35:11;43.53;;;27.77;;
8113;SDS011;4099;52.684;9.918;2022-10-31T02:40:20;47.17;;;26.77;;
8113;SDS011;4099;52.684;9.918;2022-10-31T02:45:57;43.73;;;27.47;;
8113;SDS011;4099;52.684;9.918;2022-10-31T02:51:06;50.43;;;29.93;;
8113;SDS011;4099;52.684;9.918;2022-10-31T02:56:11;49.00;;;30.00;;
8113;SDS011;4099;52.684;9.918;2022-10-31T03:01:22;48.67;;;28.63;;
8113;SDS011;4099;52.684;9.918;2022-10-31T03:06:38;49.50;;;31.13;;
8113;SDS011;4099;52.684;9.918;2022-10-31T03:11:49;47.23;;;27.37;;
8113;SDS011;4099;52.684;9.918;2022-10-31T03:16:59;44.07;;;26.77;;
8113;SDS011;4099;52.684;9.918;2022-10-31T03:22:06;43.77;;;27.33;;
8113;SDS011;4099;52.684;9.918;2022-10-31T03:27:18;53.00;;;27.00;;
8113;SDS011;4099;52.684;9.918;2022-10-31T03:32:24;42.93;;;26.73;;
8113;SDS011;4099;52.684;9.918;2022-10-31T03:37:32;54.10;;;29.73;;
8113;SDS011;4099;52.684;9.918;2022-10-31T03:42:37;54.33;;;29.93;;
8113;SDS011;4099;52.684;9.918;2022-10-31T03:47:41;49.83;;;29.20;;
8113;SDS011;4099;52.684;9.918;2022-10-31T03:52:47;41.77;;;26.87;;
8113;SDS011;4099;52.684;9.918;2022-10-31T03:57:53;41.13;;;24.80;;
8113;SDS011;4099;52.684;9.918;2022-10-31T04:03:00;49.10;;;26.17;;
8113;SDS011;4099;52.684;9.918;2022-10-31T04:08:11;43.63;;;25.83;;
8113;SDS011;4099;52.684;9.918;2022-10-31T04:13:19;41.80;;;23.20;;
8113;SDS011;4099;52.684;9.918;2022-10-31T04:18:33;37.07;;;23.80;;
8113;SDS011;4099;52.684;9.918;2022-10-31T04:23:38;41.23;;;27.10;;
8113;SDS011;4099;52.684;9.918;2022-10-31T04:28:58;49.23;;;28.97;;
8113;SDS011;4099;52.684;9.918;2022-10-31T04:34:02;47.07;;;26.60;;
8113;SDS011;4099;52.684;9.918;2022-10-31T04:39:05;44.77;;;27.03;;
8113;SDS011;4099;52.684;9.918;2022-10-31T04:44:20;36.90;;;24.43;;
8113;SDS011;4099;52.684;9.918;2022-10-31T04:49:25;35.70;;;23.53;;
8113;SDS011;4099;52.684;9.918;2022-10-31T04:54:28;29.47;;;21.63;;
8113;SDS011;4099;52.684;9.918;2022-10-31T04:59:53;35.60;;;23.03;;
8113;SDS011;4099;52.684;9.918;2022-10-31T05:04:56;34.93;;;22.67;;
8113;SDS011;4099;52.684;9.918;2022-10-31T05:10:00;41.00;;;23.43;;
8113;SDS011;4099;52.684;9.918;2022-10-31T05:15:04;39.83;;;22.13;;
8113;SDS011;4099;52.684;9.918;2022-10-31T05:20:29;36.67;;;22.90;;
8113;SDS011;4099;52.684;9.918;2022-10-31T05:25:40;36.73;;;23.97;;
8113;SDS011;4099;52.684;9.918;2022-10-31T05:30:42;170.13;;;29.90;;
8113;SDS011;4099;52.684;9.918;2022-10-31T05:35:48;117.13;;;29.03;;
8113;SDS011;4099;52.684;9.918;2022-10-31T05:41:07;42.87;;;24.07;;
8113;SDS011;4099;52.684;9.918;2022-10-31T05:46:09;50.47;;;25.20;;
8113;SDS011;4099;52.684;9.918;2022-10-31T05:51:40;45.37;;;25.77;;
8113;SDS011;4099;52.684;9.918;2022-10-31T05:56:44;47.07;;;25.63;;
8113;SDS011;4099;52.684;9.918;2022-10-31T06:01:46;77.50;;;26.73;;
8113;SDS011;4099;52.684;9.918;2022-10-31T06:07:08;48.20;;;26.13;;
8113;SDS011;4099;52.684;9.918;2022-10-31T06:12:11;47.13;;;25.37;;
8113;SDS011;4099;52.684;9.918;2022-10-31T06:17:32;50.13;;;25.67;;
8113;SDS011;4099;52.684;9.918;2022-10-31T06:23:09;198.30;;;33.00;;
8113;SDS011;4099;52.684;9.918;2022-10-31T06:28:13;141.47;;;30.07;;
8113;SDS011;4099;52.684;9.918;2022-10-31T06:33:40;61.60;;;27.23;;
8113;SDS011;4099;52.684;9.918;2022-10-31T06:38:42;69.03;;;28.37;;
8113;SDS011;4099;52.684;9.918;2022-10-31T06:43:47;47.83;;;27.33;;
8113;SDS011;4099;52.684;9.918;2022-10-31T06:49:21;55.13;;;28.93;;
8113;SDS011;4099;52.684;9.918;2022-10-31T06:54:27;44.87;;;28.40;;
8113;SDS011;4099;52.684;9.918;2022-10-31T06:59:30;43.07;;;28.00;;
8113;SDS011;4099;52.684;9.918;2022-10-31T07:04:47;53.80;;;30.07;;
8113;SDS011;4099;52.684;9.918;2022-10-31T07:09:51;47.37;;;30.53;;
8113;SDS011;4099;52.684;9.918;2022-10-31T07:15:06;48.70;;;30.90;;
8113;SDS011;4099;52.684;9.918;2022-10-31T07:20:09;44.43;;;29.60;;
8113;SDS011;4099;52.684;9.918;2022-10-31T07:25:11;47.00;;;29.87;;
8113;SDS011;4099;52.684;9.918;2022-10-31T07:30:40;46.20;;;30.57;;
8113;SDS011;4099;52.684;9.918;2022-10-31T07:35:42;42.87;;;28.70;;
8113;SDS011;4099;52.684;9.918;2022-10-31T07:40:49;48.23;;;30.50;;
8113;SDS011;4099;52.684;9.918;2022-10-31T07:45:54;54.93;;;29.87;;
8113;SDS011;4099;52.684;9.918;2022-10-31T07:51:14;43.77;;;30.27;;
8113;SDS011;4099;52.684;9.918;2022-10-31T07:56:36;48.43;;;30.60;;
8113;SDS011;4099;52.684;9.918;2022-10-31T08:01:41;90.60;;;33.63;;
8113;SDS011;4099;52.684;9.918;2022-10-31T08:07:06;54.20;;;31.50;;
8113;SDS011;4099;52.684;9.918;2022-10-31T08:12:11;81.10;;;31.87;;
8113;SDS011;4099;52.684;9.918;2022-10-31T08:17:15;56.30;;;32.07;;
8113;SDS011;4099;52.684;9.918;2022-10-31T08:22:27;44.20;;;30.43;;
8113;SDS011;4099;52.684;9.918;2022-10-31T08:27:29;58.47;;;31.03;;
8113;SDS011;4099;52.684;9.918;2022-10-31T08:32:35;84.63;;;32.47;;
8113;SDS011;4099;52.684;9.918;2022-10-31T08:37:56;44.77;;;32.47;;
8113;SDS011;4099;52.684;9.918;2022-10-31T08:43:00;53.00;;;32.73;;
8113;SDS011;4099;52.684;9.918;2022-10-31T08:48:05;88.73;;;37.80;;
8113;SDS011;4099;52.684;9.918;2022-10-31T08:53:11;64.50;;;39.70;;
8113;SDS011;4099;52.684;9.918;2022-10-31T08:58:16;59.40;;;37.30;;
8113;SDS011;4099;52.684;9.918;2022-10-31T09:03:26;52.27;;;35.27;;
8113;SDS011;4099;52.684;9.918;2022-10-31T09:08:29;72.50;;;35.27;;
8113;SDS011;4099;52.684;9.918;2022-10-31T09:13:34;71.53;;;37.47;;
8113;SDS011;4099;52.684;9.918;2022-10-31T09:19:03;58.27;;;36.13;;
8113;SDS011;4099;52.684;9.918;2022-10-31T09:24:05;66.67;;;40.07;;
8113;SDS011;4099;52.684;9.918;2022-10-31T09:29:08;72.40;;;38.30;;
8113;SDS011;4099;52.684;9.918;2022-10-31T09:34:14;59.93;;;36.23;;
8113;SDS011;4099;52.684;9.918;2022-10-31T09:39:20;58.27;;;35.90;;
8113;SDS011;4099;52.684;9.918;2022-10-31T09:44:33;61.30;;;36.00;;
8113;SDS011;4099;52.684;9.918;2022-10-31T09:50:02;61.00;;;35.20;;
8113;SDS011;4099;52.684;9.918;2022-10-31T09:55:14;57.67;;;34.10;;
8113;SDS011;4099;52.684;9.918;2022-10-31T10:00:21;52.93;;;32.73;;
8113;SDS011;4099;52.684;9.918;2022-10-31T10:05:27;48.30;;;30.73;;
8113;SDS011;4099;52.684;9.918;2022-10-31T10:10:42;46.87;;;30.97;;
8113;SDS011;4099;52.684;9.918;2022-10-31T10:16:10;47.80;;;30.97;;
8113;SDS011;4099;52.684;9.918;2022-10-31T10:21:24;47.57;;;30.70;;
8113;SDS011;4099;52.684;9.918;2022-10-31T10:26:35;53.87;;;33.50;;
8113;SDS011;4099;52.684;9.918;2022-10-31T10:31:39;46.37;;;31.53;;
8113;SDS011;4099;52.684;9.918;2022-10-31T10:36:46;48.80;;;31.60;;
8113;SDS011;4099;52.684;9.918;2022-10-31T10:41:51;51.70;;;29.50;;
8113;SDS011;4099;52.684;9.918;2022-10-31T10:47:10;44.13;;;29.63;;
8113;SDS011;4099;52.684;9.918;2022-10-31T10:52:34;50.60;;;31.33;;
8113;SDS011;4099;52.684;9.918;2022-10-31T10:57:51;45.97;;;29.17;;
8113;SDS011;4099;52.684;9.918;2022-10-31T11:02:59;42.50;;;25.90;;
8113;SDS011;4099;52.684;9.918;2022-10-31T11:08:02;39.97;;;25.63;;
8113;SDS011;4099;52.684;9.918;2022-10-31T11:13:14;36.37;;;24.27;;
8113;SDS011;4099;52.684;9.918;2022-10-31T11:18:24;35.97;;;23.50;;
8113;SDS011;4099;52.684;9.918;2022-10-31T11:23:29;33.47;;;22.60;;
8113;SDS011;4099;52.684;9.918;2022-10-31T11:28:32;40.77;;;21.37;;
8113;SDS011;4099;52.684;9.918;2022-10-31T11:33:35;40.27;;;22.60;;
8113;SDS011;4099;52.684;9.918;2022-10-31T11:38:41;35.67;;;22.17;;
8113;SDS011;4099;52.684;9.918;2022-10-31T11:43:49;38.77;;;22.47;;
8113;SDS011;4099;52.684;9.918;2022-10-31T11:48:55;38.73;;;22.37;;
8113;SDS011;4099;52.684;9.918;2022-10-31T11:53:59;37.87;;;23.63;;
8113;SDS011;4099;52.684;9.918;2022-10-31T11:59:04;35.53;;;20.27;;
8113;SDS011;4099;52.684;9.918;2022-10-31T12:04:07;41.27;;;21.27;;
8113;SDS011;4099;52.684;9.918;2022-10-31T12:09:21;32.17;;;19.70;;
8113;SDS011;4099;52.684;9.918;2022-10-31T12:14:27;31.63;;;18.03;;
8113;SDS011;4099;52.684;9.918;2022-10-31T12:19:39;31.53;;;18.20;;
8113;SDS011;4099;52.684;9.918;2022-10-31T12:24:50;30.90;;;18.77;;
8113;SDS011;4099;52.684;9.918;2022-10-31T12:30:06;27.77;;;17.30;;
8113;SDS011;4099;52.684;9.918;2022-10-31T12:35:21;31.27;;;18.00;;
8113;SDS011;4099;52.684;9.918;2022-10-31T12:40:37;28.80;;;17.63;;
8113;SDS011;4099;52.684;9.918;2022-10-31T12:45:51;30.87;;;16.77;;
8113;SDS011;4099;52.684;9.918;2022-10-31T12:50:57;28.97;;;15.47;;
8113;SDS011;4099;52.684;9.918;2022-10-31T12:56:19;28.37;;;16.10;;
8113;SDS011;4099;52.684;9.918;2022-10-31T13:01:32;24.90;;;14.73;;
8113;SDS011;4099;52.684;9.918;2022-10-31T13:06:38;27.93;;;15.30;;
8113;SDS011;4099;52.684;9.918;2022-10-31T13:11:51;26.17;;;15.37;;
8113;SDS011;4099;52.684;9.918;2022-10-31T13:16:58;21.23;;;13.70;;
8113;SDS011;4099;52.684;9.918;2022-10-31T13:22:02;20.50;;;12.27;;
8113;SDS011;4099;52.684;9.918;2022-10-31T13:27:13;19.23;;;11.27;;
8113;SDS011;4099;52.684;9.918;2022-10-31T13:32:19;20.03;;;12.00;;
8113;SDS011;4099;52.684;9.918;2022-10-31T13:37:22;18.30;;;11.20;;
8113;SDS011;4099;52.684;9.918;2022-10-31T13:42:37;14.70;;;9.63;;
8113;SDS011;4099;52.684;9.918;2022-10-31T13:47:58;17.53;;;9.93;;
8113;SDS011;4099;52.684;9.918;2022-10-31T13:53:11;18.70;;;11.03;;
8113;SDS011;4099;52.684;9.918;2022-10-31T13:58:26;14.27;;;9.27;;
8113;SDS011;4099;52.684;9.918;2022-10-31T14:03:29;16.23;;;9.57;;
8113;SDS011;4099;52.684;9.918;2022-10-31T14:08:34;14.23;;;9.63;;
8113;SDS011;4099;52.684;9.918;2022-10-31T14:13:42;17.70;;;10.80;;
8113;SDS011;4099;52.684;9.918;2022-10-31T14:18:47;21.23;;;10.63;;
8113;SDS011;4099;52.684;9.918;2022-10-31T14:23:53;16.03;;;9.90;;
8113;SDS011;4099;52.684;9.918;2022-10-31T14:28:57;15.10;;;9.67;;
8113;SDS011;4099;52.684;9.918;2022-10-31T14:34:01;13.37;;;9.17;;
8113;SDS011;4099;52.684;9.918;2022-10-31T14:39:08;13.23;;;8.77;;
8113;SDS011;4099;52.684;9.918;2022-10-31T14:50:02;12.50;;;8.43;;
8113;SDS011;4099;52.684;9.918;2022-10-31T14:55:15;11.57;;;8.00;;
8113;SDS011;4099;52.684;9.918;2022-10-31T15:00:19;13.13;;;8.30;;
8113;SDS011;4099;52.684;9.918;2022-10-31T15:05:24;13.70;;;9.37;;
8113;SDS011;4099;52.684;9.918;2022-10-31T15:10:29;25.50;;;19.07;;
8113;SDS011;4099;52.684;9.918;2022-10-31T15:15:33;49.93;;;34.40;;
8113;SDS011;4099;52.684;9.918;2022-10-31T15:20:38;36.07;;;27.47;;
8113;SDS011;4099;52.684;9.918;2022-10-31T15:25:44;22.57;;;17.43;;
8113;SDS011;4099;52.684;9.918;2022-10-31T15:30:51;20.47;;;13.33;;
8113;SDS011;4099;52.684;9.918;2022-10-31T15:35:57;22.10;;;13.27;;
8113;SDS011;4099;52.684;9.918;2022-10-31T15:41:01;18.90;;;12.23;;
8113;SDS011;4099;52.684;9.918;2022-10-31T15:46:06;18.10;;;12.60;;
8113;SDS011;4099;52.684;9.918;2022-10-31T15:51:11;19.47;;;11.80;;
8113;SDS011;4099;52.684;9.918;2022-10-31T15:56:18;18.40;;;11.80;;
8113;SDS011;4099;52.684;9.918;2022-10-31T16:01:22;18.47;;;11.30;;
8113;SDS011;4099;52.684;9.918;2022-10-31T16:06:28;15.33;;;11.07;;
8113;SDS011;4099;52.684;9.918;2022-10-31T16:11:34;20.20;;;12.20;;
8113;SDS011;4099;52.684;9.918;2022-10-31T16:16:40;18.00;;;11.17;;
8113;SDS011;4099;52.684;9.918;2022-10-31T16:21:46;19.40;;;12.27;;
8113;SDS011;4099;52.684;9.918;2022-10-31T16:26:52;19.30;;;11.40;;
8113;SDS011;4099;52.684;9.918;2022-10-31T16:31:56;19.60;;;12.23;;
8113;SDS011;4099;52.684;9.918;2022-10-31T16:37:00;21.43;;;12.70;;
8113;SDS011;4099;52.684;9.918;2022-10-31T16:42:03;19.67;;;12.70;;
8113;SDS011;4099;52.684;9.918;2022-10-31T16:47:10;18.60;;;12.07;;
8113;SDS011;4099;52.684;9.918;2022-10-31T16:52:17;19.43;;;12.73;;
8113;SDS011;4099;52.684;9.918;2022-10-31T16:57:27;18.50;;;12.77;;
8113;SDS011;4099;52.684;9.918;2022-10-31T17:02:32;19.37;;;13.07;;
8113;SDS011;4099;52.684;9.918;2022-10-31T17:07:36;18.93;;;12.50;;
8113;SDS011;4099;52.684;9.918;2022-10-31T17:12:38;21.67;;;14.00;;
8113;SDS011;4099;52.684;9.918;2022-10-31T17:17:44;19.80;;;13.50;;
8113;SDS011;4099;52.684;9.918;2022-10-31T17:22:48;19.80;;;13.73;;
8113;SDS011;4099;52.684;9.918;2022-10-31T17:27:50;21.97;;;15.20;;
8113;SDS011;4099;52.684;9.918;2022-10-31T17:32:53;20.07;;;14.33;;
8113;SDS011;4099;52.684;9.918;2022-10-31T17:37:56;24.27;;;15.70;;
8113;SDS011;4099;52.684;9.918;2022-10-31T17:42:59;27.97;;;16.47;;
8113;SDS011;4099;52.684;9.918;2022-10-31T17:48:01;25.57;;;16.27;;
8113;SDS011;4099;52.684;9.918;2022-10-31T17:53:06;30.17;;;19.73;;
8113;SDS011;4099;52.684;9.918;2022-10-31T17:58:08;26.17;;;17.17;;
8113;SDS011;4099;52.684;9.918;2022-10-31T18:03:11;26.60;;;17.67;;
8113;SDS011;4099;52.684;9.918;2022-10-31T18:08:15;31.33;;;18.43;;
8113;SDS011;4099;52.684;9.918;2022-10-31T18:13:18;27.40;;;18.30;;
8113;SDS011;4099;52.684;9.918;2022-10-31T18:18:20;36.33;;;20.00;;
8113;SDS011;4099;52.684;9.918;2022-10-31T18:23:24;33.30;;;20.07;;
8113;SDS011;4099;52.684;9.918;2022-10-31T18:28:27;35.37;;;21.07;;
8113;SDS011;4099;52.684;9.918;2022-10-31T18:33:29;35.67;;;22.93;;
8113;SDS011;4099;52.684;9.918;2022-10-31T18:38:35;36.27;;;21.40;;
8113;SDS011;4099;52.684;9.918;2022-10-31T18:43:39;49.87;;;30.03;;
8113;SDS011;4099;52.684;9.918;2022-10-31T18:48:42;40.33;;;24.67;;
8113;SDS011;4099;52.684;9.918;2022-10-31T18:53:50;45.33;;;25.10;;
8113;SDS011;4099;52.684;9.918;2022-10-31T18:58:53;45.03;;;26.23;;
8113;SDS011;4099;52.684;9.918;2022-10-31T19:03:56;49.37;;;27.13;;
8113;SDS011;4099;52.684;9.918;2022-10-31T19:09:03;53.63;;;33.10;;
8113;SDS011;4099;52.684;9.918;2022-10-31T19:14:08;55.90;;;31.30;;
8113;SDS011;4099;52.684;9.918;2022-10-31T19:19:13;58.37;;;32.13;;
8113;SDS011;4099;52.684;9.918;2022-10-31T19:24:18;59.40;;;32.17;;
8113;SDS011;4099;52.684;9.918;2022-10-31T19:29:20;58.00;;;30.83;;
8113;SDS011;4099;52.684;9.918;2022-10-31T19:34:22;62.77;;;32.60;;
8113;SDS011;4099;52.684;9.918;2022-10-31T19:39:26;57.87;;;29.70;;
8113;SDS011;4099;52.684;9.918;2022-10-31T19:44:29;53.40;;;30.33;;
8113;SDS011;4099;52.684;9.918;2022-10-31T19:49:31;53.67;;;29.90;;
8113;SDS011;4099;52.684;9.918;2022-10-31T19:54:35;55.27;;;29.53;;
8113;SDS011;4099;52.684;9.918;2022-10-31T19:59:37;61.23;;;31.40;;
8113;SDS011;4099;52.684;9.918;2022-10-31T20:04:40;60.40;;;31.23;;
8113;SDS011;4099;52.684;9.918;2022-10-31T20:09:46;62.37;;;30.90;;
8113;SDS011;4099;52.684;9.918;2022-10-31T20:14:48;68.60;;;34.90;;
8113;SDS011;4099;52.684;9.918;2022-10-31T20:19:51;62.73;;;31.97;;
8113;SDS011;4099;52.684;9.918;2022-10-31T20:24:55;64.57;;;32.60;;
8113;SDS011;4099;52.684;9.918;2022-10-31T20:29:58;71.83;;;32.97;;
8113;SDS011;4099;52.684;9.918;2022-10-31T20:35:00;64.80;;;32.93;;
8113;SDS011;4099;52.684;9.918;2022-10-31T20:40:04;70.33;;;33.50;;
8113;SDS011;4099;52.684;9.918;2022-10-31T20:45:08;65.30;;;33.47;;
8113;SDS011;4099;52.684;9.918;2022-10-31T20:50:11;68.63;;;33.27;;
8113;SDS011;4099;52.684;9.918;2022-10-31T20:55:15;72.87;;;34.20;;
8113;SDS011;4099;52.684;9.918;2022-10-31T21:00:17;71.17;;;35.60;;
8113;SDS011;4099;52.684;9.918;2022-10-31T21:05:20;75.73;;;36.57;;
8113;SDS011;4099;52.684;9.918;2022-10-31T21:10:25;70.17;;;37.40;;
8113;SDS011;4099;52.684;9.918;2022-10-31T21:15:27;76.77;;;36.33;;
8113;SDS011;4099;52.684;9.918;2022-10-31T21:20:29;76.03;;;35.00;;
8113;SDS011;4099;52.684;9.918;2022-10-31T21:25:33;74.03;;;37.47;;
8113;SDS011;4099;52.684;9.918;2022-10-31T21:30:39;73.00;;;37.80;;
8113;SDS011;4099;52.684;9.918;2022-10-31T21:35:47;78.80;;;38.77;;
8113;SDS011;4099;52.684;9.918;2022-10-31T21:40:52;74.83;;;38.13;;
8113;SDS011;4099;52.684;9.918;2022-10-31T21:46:01;69.80;;;38.03;;
8113;SDS011;4099;52.684;9.918;2022-10-31T21:51:04;75.20;;;38.90;;
8113;SDS011;4099;52.684;9.918;2022-10-31T21:56:09;78.50;;;38.10;;
8113;SDS011;4099;52.684;9.918;2022-10-31T22:01:12;77.47;;;38.73;;
8113;SDS011;4099;52.684;9.918;2022-10-31T22:06:14;76.23;;;38.03;;
8113;SDS011;4099;52.684;9.918;2022-10-31T22:11:21;75.17;;;37.97;;
8113;SDS011;4099;52.684;9.918;2022-10-31T22:16:24;73.03;;;36.00;;
8113;SDS011;4099;52.684;9.918;2022-10-31T22:21:28;73.63;;;37.63;;
8113;SDS011;4099;52.684;9.918;2022-10-31T22:26:32;70.77;;;38.60;;
8113;SDS011;4099;52.684;9.918;2022-10-31T22:31:36;75.73;;;37.50;;
8113;SDS011;4099;52.684;9.918;2022-10-31T22:36:40;75.23;;;36.40;;
8113;SDS011;4099;52.684;9.918;2022-10-31T22:41:45;69.07;;;36.23;;
8113;SDS011;4099;52.684;9.918;2022-10-31T22:46:47;73.07;;;36.77;;
8113;SDS011;4099;52.684;9.918;2022-10-31T22:51:50;67.63;;;34.67;;
8113;SDS011;4099;52.684;9.918;2022-10-31T22:56:53;84.17;;;38.20;;
8113;SDS011;4099;52.684;9.918;2022-10-31T23:01:56;79.07;;;38.73;;
8113;SDS011;4099;52.684;9.918;2022-10-31T23:06:59;80.90;;;36.73;;
8113;SDS011;4099;52.684;9.918;2022-10-31T23:12:03;74.83;;;37.27;;
8113;SDS011;4099;52.684;9.918;2022-10-31T23:17:19;72.77;;;35.87;;
8113;SDS011;4099;52.684;9.918;2022-10-31T23:22:21;79.47;;;36.63;;
8113;SDS011;4099;52.684;9.918;2022-10-31T23:27:25;71.90;;;37.60;;
8113;SDS011;4099;52.684;9.918;2022-10-31T23:32:28;66.40;;;34.60;;
8113;SDS011;4099;52.684;9.918;2022-10-31T23:37:35;74.47;;;36.60;;
8113;SDS011;4099;52.684;9.918;2022-10-31T23:42:40;70.80;;;36.77;;
8113;SDS011;4099;52.684;9.918;2022-10-31T23:47:43;70.50;;;37.10;;
8113;SDS011;4099;52.684;9.918;2022-10-31T23:52:45;71.07;;;35.60;;
8113;SDS011;4099;52.684;9.918;2022-10-31T23:57:49;68.23;;;35.60;;
